Time;durP1;ratioP1;P1;durP2;ratioP2;P2;SDS_P1;SDS_P2;PMS_P1;PMS_P2;Temp;Humidity;BMP_temperature;BMP_pressure;BME280_temperature;BME280_humidity;BME280_pressure;Samples;Min_cycle;Max_cycle;Signal;HPM_P1;HPM_P2
2021/12/27 00:01:26;;;;;;;24.58;10.98;;;;;;;3.58;100.00;98659.78;8280765;28;20511;-79
2021/12/27 00:05:27;;;;;;;20.55;10.00;;;;;;;3.55;100.00;98654.81;8277418;28;20034;-80
2021/12/27 00:09:28;;;;;;;21.27;9.52;;;;;;;3.55;100.00;98646.63;8278681;28;20092;-81
2021/12/27 00:13:30;;;;;;;18.98;9.45;;;;;;;3.59;100.00;98653.25;8255639;28;20120;-81
2021/12/27 00:17:30;;;;;;;22.13;9.98;;;;;;;3.60;100.00;98652.22;8264107;28;20033;-80
2021/12/27 00:21:31;;;;;;;20.55;10.00;;;;;;;3.65;100.00;98646.88;8261219;28;20030;-81
2021/12/27 00:25:31;;;;;;;19.63;9.93;;;;;;;3.63;100.00;98654.47;8270514;28;20469;-81
2021/12/27 00:29:32;;;;;;;37.22;12.32;;;;;;;3.66;100.00;98647.72;8269623;28;20119;-79
2021/12/27 00:33:32;;;;;;;27.90;10.98;;;;;;;3.67;100.00;98656.72;8259961;28;20030;-79
2021/12/27 00:37:34;;;;;;;20.58;9.98;;;;;;;3.58;100.00;98651.59;8274265;28;20034;-81
2021/12/27 00:41:34;;;;;;;19.17;10.55;;;;;;;3.59;100.00;98644.25;8270453;28;20049;-80
2021/12/27 00:45:35;;;;;;;18.80;9.85;;;;;;;3.56;100.00;98645.56;8256725;28;20046;-79
2021/12/27 00:49:35;;;;;;;18.30;9.15;;;;;;;3.52;100.00;98646.28;8245727;28;20026;-80
2021/12/27 00:53:36;;;;;;;24.98;10.55;;;;;;;3.49;100.00;98642.13;8279051;28;20026;-81
2021/12/27 00:57:36;;;;;;;21.10;11.05;;;;;;;3.53;100.00;98635.13;8270063;28;20046;-80
2021/12/27 01:01:37;;;;;;;22.02;10.32;;;;;;;3.54;100.00;98623.19;8252372;28;20414;-79
2021/12/27 01:05:38;;;;;;;21.88;10.73;;;;;;;3.55;100.00;98622.13;8255502;28;20034;-80
2021/12/27 01:09:57;;;;;;;19.52;9.77;;;;;;;3.56;100.00;98629.22;8280244;28;20026;-80
2021/12/27 01:14:10;;;;;;;19.98;9.80;;;;;;;3.57;100.00;98635.47;8263299;28;20054;-80
2021/12/27 01:18:11;;;;;;;23.63;10.77;;;;;;;3.55;100.00;98643.91;8269287;28;20486;-80
2021/12/27 01:22:12;;;;;;;19.02;9.48;;;;;;;3.60;100.00;98649.50;8272298;28;20042;-80
2021/12/27 01:26:12;;;;;;;20.92;10.23;;;;;;;3.60;100.00;98640.50;8274835;28;20403;-79
2021/12/27 01:30:16;;;;;;;23.65;10.90;;;;;;;3.61;100.00;98644.88;8271851;28;20025;-80
2021/12/27 01:34:16;;;;;;;23.60;11.05;;;;;;;3.60;100.00;98648.66;8237821;28;20038;-80
2021/12/27 01:38:17;;;;;;;21.52;10.38;;;;;;;3.62;100.00;98641.91;8250494;28;20038;-81
2021/12/27 01:42:17;;;;;;;26.17;10.32;;;;;;;3.63;100.00;98640.84;8264841;28;20125;-79
2021/12/27 01:46:21;;;;;;;30.75;11.27;;;;;;;3.62;100.00;98641.06;8276871;28;20062;-79
2021/12/27 01:50:22;;;;;;;24.88;10.77;;;;;;;3.67;100.00;98634.94;8267594;28;20041;-80
2021/12/27 01:54:23;;;;;;;29.98;11.27;;;;;;;3.69;100.00;98640.97;8268911;28;20418;-80
2021/12/27 01:58:24;;;;;;;32.47;11.60;;;;;;;3.66;100.00;98631.38;8256488;28;20110;-80
2021/12/27 02:02:25;;;;;;;27.83;11.23;;;;;;;3.71;100.00;98641.56;8268437;28;20037;-80
2021/12/27 02:06:26;;;;;;;24.98;10.30;;;;;;;3.68;100.00;98640.13;8263141;28;20076;-80
2021/12/27 02:10:27;;;;;;;25.25;10.52;;;;;;;3.67;100.00;98632.22;8275435;28;20038;-80
2021/12/27 02:14:28;;;;;;;27.88;11.35;;;;;;;3.64;100.00;98628.88;8248405;28;20077;-80
2021/12/27 02:18:28;;;;;;;29.85;11.10;;;;;;;3.67;100.00;98633.03;8280252;28;20100;-82
2021/12/27 02:22:34;;;;;;;26.38;10.73;;;;;;;3.68;100.00;98631.13;8264078;28;20046;-81
2021/12/27 02:26:35;;;;;;;30.38;11.10;;;;;;;3.67;100.00;98632.22;8271486;28;20046;-80
2021/12/27 02:30:36;;;;;;;26.25;12.10;;;;;;;3.64;100.00;98639.78;8259080;28;20475;-81
2021/12/27 02:34:37;;;;;;;25.48;10.32;;;;;;;3.69;100.00;98635.50;8256970;28;20452;-81
2021/12/27 02:38:40;;;;;;;29.98;12.60;;;;;;;3.67;100.00;98616.69;8240313;28;20023;-79
2021/12/27 02:43:06;;;;;;;23.75;11.25;;;;;;;3.68;100.00;98617.50;8259649;28;20041;-81
2021/12/27 02:47:07;;;;;;;27.55;11.60;;;;;;;3.64;100.00;98615.25;8265720;28;20031;-80
2021/12/27 02:51:08;;;;;;;27.20;11.35;;;;;;;3.61;100.00;98617.63;8253415;28;20035;-81
2021/12/27 02:55:12;;;;;;;32.05;12.77;;;;;;;3.60;100.00;98614.09;8257481;28;20602;-81
2021/12/27 02:59:12;;;;;;;37.63;13.88;;;;;;;3.55;100.00;98611.22;8238597;28;20038;-79
2021/12/27 03:03:13;;;;;;;34.33;12.02;;;;;;;3.48;100.00;98596.03;8271041;28;20038;-80
2021/12/27 03:07:13;;;;;;;35.67;12.88;;;;;;;3.52;100.00;98600.78;8256806;28;20040;-81
2021/12/27 03:11:14;;;;;;;33.20;12.03;;;;;;;3.52;100.00;98597.25;8272752;28;20045;-81
2021/12/27 03:15:17;;;;;;;33.15;12.07;;;;;;;3.54;100.00;98590.50;8260435;28;20281;-81
2021/12/27 03:19:17;;;;;;;;;;;;;;;3.62;100.00;98587.41;8250302;28;20128;-80
2021/12/27 03:23:18;;;;;;;31.67;13.07;;;;;;;3.67;100.00;98575.81;8264030;28;19921;-81
2021/12/27 03:27:19;;;;;;;37.70;12.82;;;;;;;3.71;100.00;98576.19;8272902;28;20026;-81
2021/12/27 03:31:19;;;;;;;38.88;13.50;;;;;;;3.76;100.00;98568.97;8262377;28;20042;-81
2021/12/27 03:35:34;;;;;;;40.95;14.55;;;;;;;3.78;100.00;98568.75;8251268;28;20042;-81
2021/12/27 03:39:35;;;;;;;39.35;14.93;;;;;;;3.72;100.00;98580.56;8249057;28;20057;-81
2021/12/27 03:43:35;;;;;;;38.78;13.70;;;;;;;3.68;100.00;98584.81;8256099;28;20033;-80
2021/12/27 03:47:36;;;;;;;42.60;14.18;;;;;;;3.69;100.00;98583.75;8260390;28;20027;-82
2021/12/27 03:51:43;;;;;;;76.15;17.45;;;;;;;3.73;100.00;98582.22;8273846;28;20037;-82
2021/12/27 03:55:43;;;;;;;135.00;24.23;;;;;;;3.64;100.00;98590.75;8274210;28;20030;-80
2021/12/27 04:03:47;;;;;;;40.42;14.25;;;;;;;3.68;100.00;98587.53;8272034;28;20040;-82
2021/12/27 04:07:56;;;;;;;53.92;16.88;;;;;;;3.70;100.00;98579.97;8253589;28;20030;-83
2021/12/27 04:11:57;;;;;;;41.75;15.65;;;;;;;3.76;100.00;98584.47;8261794;28;20043;-81
2021/12/27 04:15:58;;;;;;;40.42;14.32;;;;;;;3.81;100.00;98577.25;8257561;28;20038;-83
2021/12/27 04:19:58;;;;;;;57.30;16.63;;;;;;;3.85;100.00;98586.63;8252784;28;20082;-81
2021/12/27 04:23:58;;;;;;;45.97;15.88;;;;;;;3.84;100.00;98592.31;8267978;28;20041;-81
2021/12/27 04:27:59;;;;;;;39.72;13.68;;;;;;;3.88;100.00;98579.88;8253773;28;20043;-81
2021/12/27 04:32:00;;;;;;;39.20;14.10;;;;;;;3.89;100.00;98571.44;8265870;28;20065;-81
2021/12/27 04:36:00;;;;;;;39.38;13.35;;;;;;;3.92;100.00;98569.31;8263440;28;20041;-81
2021/12/27 04:40:03;;;;;;;42.22;13.98;;;;;;;3.91;100.00;98559.50;8272263;28;20397;-80
2021/12/27 04:44:04;;;;;;;39.90;13.18;;;;;;;3.95;100.00;98572.38;8259094;28;20034;-81
2021/12/27 04:48:06;;;;;;;40.03;13.70;;;;;;;3.88;100.00;98553.44;8269088;28;20041;-81
2021/12/27 04:52:06;;;;;;;32.97;13.02;;;;;;;3.91;100.00;98549.41;8274446;28;20120;-80
2021/12/27 04:56:06;;;;;;;31.67;11.85;;;;;;;3.97;100.00;98551.19;8274991;28;20038;-81
2021/12/27 05:00:08;;;;;;;32.55;11.35;;;;;;;4.00;100.00;98547.97;8270794;28;20483;-80
2021/12/27 05:04:08;;;;;;;42.30;13.80;;;;;;;3.97;100.00;98545.72;8283179;28;20113;-81
2021/12/27 05:08:08;;;;;;;41.40;14.20;;;;;;;3.95;100.00;98549.75;8261262;28;20045;-81
2021/12/27 05:12:09;;;;;;;35.88;12.48;;;;;;;3.99;100.00;98553.69;8267527;28;20105;-82
2021/12/27 05:16:10;;;;;;;33.78;12.38;;;;;;;4.00;100.00;98552.59;8262181;28;20050;-82
2021/12/27 05:20:10;;;;;;;35.63;12.00;;;;;;;4.02;100.00;98537.69;8250769;28;20480;-81
2021/12/27 05:24:12;;;;;;;31.42;11.70;;;;;;;4.07;100.00;98528.78;8267892;28;20053;-82
2021/12/27 05:28:13;;;;;;;29.35;11.60;;;;;;;4.14;100.00;98528.66;8252075;28;20080;-81
2021/12/27 05:32:14;;;;;;;31.17;12.15;;;;;;;4.15;100.00;98519.41;8259229;28;20072;-81
2021/12/27 05:36:14;;;;;;;24.23;10.02;;;;;;;4.16;100.00;98510.16;8258874;28;20038;-82
2021/12/27 05:40:19;;;;;;;30.67;11.07;;;;;;;4.14;100.00;98499.50;8256785;28;20034;-81
2021/12/27 05:44:20;;;;;;;29.25;10.40;;;;;;;4.16;100.00;98491.88;8278261;28;20101;-80
2021/12/27 05:48:20;;;;;;;23.08;10.00;;;;;;;4.22;100.00;98488.19;8253925;28;20652;-80
2021/12/27 05:52:21;;;;;;;22.08;10.15;;;;;;;4.27;100.00;98487.50;8264118;28;20093;-83
2021/12/27 05:56:21;;;;;;;25.75;10.05;;;;;;;4.24;100.00;98494.25;8253960;28;20470;-82
2021/12/27 06:00:22;;;;;;;25.10;10.07;;;;;;;4.22;100.00;98493.66;8269772;28;20041;-84
2021/12/27 06:04:22;;;;;;;31.77;11.10;;;;;;;4.20;100.00;98503.16;8260632;28;20034;-81
2021/12/27 06:08:22;;;;;;;31.03;11.93;;;;;;;4.21;100.00;98502.09;8262926;28;20037;-82
2021/12/27 06:12:24;;;;;;;24.73;10.38;;;;;;;4.29;100.00;98501.72;8247322;28;20285;-82
2021/12/27 06:16:24;;;;;;;23.13;9.52;;;;;;;4.37;100.00;98495.88;8263364;28;20038;-82
2021/12/27 06:20:25;;;;;;;23.67;9.38;;;;;;;4.42;100.00;98495.97;8260442;28;20130;-81
2021/12/27 06:24:25;;;;;;;19.50;9.02;;;;;;;4.41;100.00;98491.59;8271623;28;20038;-81
2021/12/27 06:28:27;;;;;;;21.05;8.73;;;;;;;4.39;100.00;98491.00;8273932;28;20044;-81
2021/12/27 06:32:28;;;;;;;28.23;10.55;;;;;;;4.41;100.00;98504.41;8245951;28;20037;-81
2021/12/27 06:36:28;;;;;;;23.38;9.98;;;;;;;4.34;100.00;98509.97;8264372;28;20065;-80
2021/12/27 06:40:30;;;;;;;23.75;10.43;;;;;;;4.30;100.00;98506.09;8273197;28;20148;-81
2021/12/27 06:44:31;;;;;;;22.67;9.82;;;;;;;4.29;100.00;98499.81;8261552;28;20037;-81
2021/12/27 06:48:31;;;;;;;20.52;8.77;;;;;;;4.37;100.00;98497.75;8270783;28;20441;-80
2021/12/27 06:52:32;;;;;;;20.65;8.35;;;;;;;4.33;100.00;98495.53;8261936;28;20034;-80
2021/12/27 06:56:33;;;;;;;16.52;8.52;;;;;;;4.39;100.00;98479.28;8267948;28;20088;-81
2021/12/27 07:00:33;;;;;;;15.80;8.05;;;;;;;4.43;100.00;98481.28;8264141;28;21412;-82
2021/12/27 07:04:34;;;;;;;19.42;9.02;;;;;;;4.48;100.00;98486.00;8260216;28;20041;-81
2021/12/27 07:08:34;;;;;;;20.65;9.05;;;;;;;4.59;100.00;98476.13;8247526;28;20463;-81
2021/12/27 07:12:35;;;;;;;19.58;8.77;;;;;;;4.67;100.00;98481.16;8265433;28;20401;-80
2021/12/27 07:16:35;;;;;;;19.50;8.07;;;;;;;4.74;100.00;98479.13;8273448;28;20049;-81
2021/12/27 07:20:36;;;;;;;17.08;7.75;;;;;;;4.78;100.00;98477.56;8261667;28;20037;-80
2021/12/27 07:24:37;;;;;;;15.20;8.23;;;;;;;4.85;100.00;98478.25;8261834;28;20048;-79
2021/12/27 07:28:37;;;;;;;19.67;9.07;;;;;;;4.90;100.00;98481.06;8278011;28;20037;-80
2021/12/27 07:32:38;;;;;;;19.08;10.23;;;;;;;4.96;100.00;98471.88;8262718;28;20030;-80
2021/12/27 07:36:38;;;;;;;20.15;8.98;;;;;;;5.03;100.00;98475.31;8260327;28;20547;-80
2021/12/27 07:40:39;;;;;;;21.55;9.23;;;;;;;5.09;100.00;98476.22;8262884;28;20213;-81
2021/12/27 07:44:39;;;;;;;23.67;10.38;;;;;;;5.10;100.00;98474.31;8285600;28;20053;-82
2021/12/27 07:48:39;;;;;;;23.67;10.23;;;;;;;5.01;100.00;98477.44;8256227;28;20033;-80
2021/12/27 07:52:40;;;;;;;20.23;9.10;;;;;;;5.01;100.00;98480.16;8274841;28;20465;-80
2021/12/27 07:56:40;;;;;;;21.88;10.07;;;;;;;5.08;100.00;98474.53;8277626;28;20139;-81
2021/12/27 08:00:41;;;;;;;22.33;9.75;;;;;;;5.14;100.00;98483.66;8274976;28;20041;-81
2021/12/27 08:04:42;;;;;;;22.30;9.50;;;;;;;5.21;100.00;98495.25;8272162;28;20504;-81
2021/12/27 08:08:42;;;;;;;22.73;9.30;;;;;;;5.12;100.00;98499.47;8270453;28;20141;-81
2021/12/27 08:12:43;;;;;;;25.27;10.43;;;;;;;5.05;100.00;98496.88;8269677;28;20112;-80
2021/12/27 08:16:44;;;;;;;23.10;11.65;;;;;;;5.03;100.00;98499.88;8279178;28;20034;-80
2021/12/27 08:20:44;;;;;;;22.63;10.15;;;;;;;5.06;100.00;98498.56;8271208;28;20065;-81
2021/12/27 08:24:45;;;;;;;22.70;10.48;;;;;;;5.10;100.00;98493.41;8279800;28;20061;-80
2021/12/27 08:28:49;;;;;;;20.27;10.43;;;;;;;5.18;100.00;98495.75;8275691;28;20041;-77
2021/12/27 08:32:49;;;;;;;22.15;10.35;;;;;;;5.19;100.00;98492.75;8273018;28;20527;-81
2021/12/27 08:36:50;;;;;;;23.02;10.10;;;;;;;5.29;100.00;98481.16;8277556;28;20065;-81
2021/12/27 08:40:50;;;;;;;23.85;11.80;;;;;;;5.35;100.00;98482.09;8262272;28;20038;-81
2021/12/27 08:44:51;;;;;;;27.10;11.98;;;;;;;5.43;100.00;98485.22;8281810;28;20034;-79
2021/12/27 08:48:52;;;;;;;25.55;11.27;;;;;;;5.53;100.00;98470.06;8266547;28;20542;-79
2021/12/27 08:52:53;;;;;;;18.50;10.52;;;;;;;5.66;100.00;98469.75;8274868;28;20050;-80
2021/12/27 08:56:53;;;;;;;23.65;12.05;;;;;;;5.83;100.00;98465.06;8278538;28;20471;-79
2021/12/27 09:00:54;;;;;;;27.77;11.95;;;;;;;6.00;100.00;98465.03;8266032;28;20026;-78
2021/12/27 09:04:54;;;;;;;25.63;11.25;;;;;;;6.03;100.00;98471.91;8270562;28;20121;-79
2021/12/27 09:08:55;;;;;;;23.05;11.57;;;;;;;6.05;100.00;98461.56;8256019;28;20045;-78
2021/12/27 09:12:55;;;;;;;27.48;11.82;;;;;;;6.13;100.00;98453.75;8257716;28;20046;-79
2021/12/27 09:16:55;;;;;;;23.50;11.32;;;;;;;6.09;100.00;98457.22;8255028;28;20088;-80
2021/12/27 09:20:57;;;;;;;23.15;12.15;;;;;;;6.09;100.00;98457.22;8253703;28;20034;-80
2021/12/27 09:24:57;;;;;;;24.15;12.00;;;;;;;6.17;100.00;98454.06;8247891;28;20070;-81
2021/12/27 09:28:58;;;;;;;22.75;11.25;;;;;;;6.19;100.00;98442.84;8285059;28;20376;-80
2021/12/27 09:32:58;;;;;;;23.63;11.05;;;;;;;6.30;100.00;98452.84;8283157;28;20508;-80
2021/12/27 09:36:58;;;;;;;26.48;12.60;;;;;;;6.43;100.00;98440.69;8265556;28;20035;-79
2021/12/27 09:40:59;;;;;;;23.67;11.93;;;;;;;6.63;100.00;98438.16;8271913;28;20033;-81
2021/12/27 09:44:59;;;;;;;24.50;12.15;;;;;;;6.81;100.00;98432.34;8297129;28;20105;-79
2021/12/27 09:49:04;;;;;;;26.70;10.60;;;;;;;6.99;100.00;98419.34;8263286;28;20038;-80
2021/12/27 09:53:05;;;;;;;25.10;11.27;;;;;;;7.19;100.00;98416.78;8269575;28;20186;-79
2021/12/27 09:57:06;;;;;;;23.35;11.50;;;;;;;7.20;100.00;98418.44;8279545;28;20038;-81
2021/12/27 10:01:07;;;;;;;21.63;10.60;;;;;;;7.26;100.00;98406.44;8276768;28;20038;-79
2021/12/27 10:05:08;;;;;;;24.85;12.25;;;;;;;7.47;100.00;98399.19;8258560;28;20042;-79
2021/12/27 10:09:09;;;;;;;21.92;11.13;;;;;;;7.65;100.00;98400.66;8273633;28;20044;-79
2021/12/27 10:13:10;;;;;;;23.45;10.90;;;;;;;7.75;100.00;98403.44;8289478;28;20045;-79
2021/12/27 10:17:11;;;;;;;20.83;9.95;;;;;;;7.84;100.00;98397.47;8270225;28;20038;-80
2021/12/27 10:21:14;;;;;;;21.23;11.10;;;;;;;7.99;100.00;98387.38;8264008;28;20052;-79
2021/12/27 10:25:20;;;;;;;20.42;10.48;;;;;;;8.12;100.00;98382.47;8240938;28;20044;-80
2021/12/27 10:29:23;;;;;;;23.50;11.50;;;;;;;8.25;100.00;98392.97;8287591;28;20037;-79
2021/12/27 10:33:25;;;;;;;22.85;11.05;;;;;;;8.31;100.00;98389.16;8278831;28;20039;-80
2021/12/27 10:37:31;;;;;;;21.35;10.40;;;;;;;8.44;100.00;98387.84;8272661;28;20129;-80
2021/12/27 10:41:36;;;;;;;21.05;11.65;;;;;;;8.34;100.00;98379.56;8286058;28;20037;-81
2021/12/27 10:45:39;;;;;;;19.52;11.98;;;;;;;8.30;100.00;98371.03;8276672;28;20385;-79
2021/12/27 10:49:48;;;;;;;;;;;;;;;8.19;100.00;98370.19;8277040;28;20030;-80
2021/12/27 10:53:55;;;;;;;21.45;11.23;;;;;;;8.29;100.00;98368.56;8266975;28;20067;-79
2021/12/27 10:58:09;;;;;;;23.15;12.18;;;;;;;8.34;100.00;98350.19;8259040;28;20043;-80
2021/12/27 11:02:13;;;;;;;22.73;11.50;;;;;;;8.54;100.00;98352.19;8256765;28;20034;-80
2021/12/27 11:06:20;;;;;;;24.48;12.05;;;;;;;8.86;100.00;98351.09;8238696;28;20057;-80
2021/12/27 11:10:21;;;;;;;23.23;12.48;;;;;;;9.02;100.00;98347.25;8273059;28;20564;-79
2021/12/27 11:14:22;;;;;;;20.05;11.30;;;;;;;9.28;100.00;98352.72;8263139;28;20484;-80
2021/12/27 11:18:23;;;;;;;20.58;10.77;;;;;;;9.38;100.00;98355.47;8286980;28;20042;-79
2021/12/27 11:22:24;;;;;;;24.02;11.88;;;;;;;9.44;100.00;98351.59;8285999;28;20034;-80
2021/12/27 11:26:27;;;;;;;22.20;11.85;;;;;;;9.58;100.00;98355.44;8268747;28;20062;-79
2021/12/27 11:30:31;;;;;;;18.25;11.00;;;;;;;9.71;100.00;98345.75;8279865;28;20611;-80
2021/12/27 11:34:55;;;;;;;18.40;10.30;;;;;;;9.74;100.00;98339.69;8286375;28;20034;-80
2021/12/27 11:38:57;;;;;;;17.45;10.50;;;;;;;9.75;100.00;98346.84;8276788;28;20066;-79
2021/12/27 11:43:00;;;;;;;16.50;9.45;;;;;;;9.72;100.00;98332.81;8279388;28;20045;-78
2021/12/27 11:47:00;;;;;;;;;;;;;;;10.07;100.00;98333.78;8266911;28;20039;-79
2021/12/27 11:51:04;;;;;;;17.85;10.60;;;;;;;10.21;100.00;98323.81;8275280;28;19914;-80
2021/12/27 11:55:05;;;;;;;16.30;9.77;;;;;;;10.30;100.00;98322.13;8285000;28;20062;-80
2021/12/27 11:59:32;;;;;;;15.20;10.13;;;;;;;10.22;100.00;98323.53;8285172;28;20089;-79
2021/12/27 12:03:41;;;;;;;17.88;10.50;;;;;;;10.09;100.00;98326.91;8269955;28;20041;-79
2021/12/27 12:07:41;;;;;;;15.35;11.18;;;;;;;9.92;100.00;98321.75;8288273;28;20026;-81
2021/12/27 12:11:43;;;;;;;17.05;10.18;;;;;;;9.93;100.00;98325.31;8274203;28;20541;-80
2021/12/27 12:16:02;;;;;;;19.67;11.13;;;;;;;9.75;100.00;98326.75;8280871;28;20172;-80
2021/12/27 12:20:04;;;;;;;22.00;12.05;;;;;;;9.49;100.00;98321.38;8284884;28;20042;-80
2021/12/27 12:24:10;;;;;;;21.33;11.13;;;;;;;9.24;100.00;98326.91;8290644;28;20044;-79
2021/12/27 12:28:14;;;;;;;18.63;11.45;;;;;;;9.09;100.00;98330.50;8279349;28;20125;-80
2021/12/27 12:32:15;;;;;;;19.27;11.20;;;;;;;8.95;100.00;98327.47;8280462;28;20038;-81
2021/12/27 12:36:16;;;;;;;28.58;16.95;;;;;;;8.92;100.00;98327.19;8263715;28;20034;-81
2021/12/27 12:40:22;;;;;;;21.95;11.77;;;;;;;8.94;100.00;98314.84;8268185;28;20026;-80
2021/12/27 12:44:22;;;;;;;21.75;11.48;;;;;;;8.96;100.00;98320.91;8254754;28;20475;-80
2021/12/27 12:48:29;;;;;;;27.42;13.43;;;;;;;8.97;100.00;98319.78;8277698;28;20038;-79
2021/12/27 12:52:29;;;;;;;19.98;11.55;;;;;;;8.93;100.00;98321.44;8282123;28;20077;-80
2021/12/27 12:56:32;;;;;;;24.70;13.40;;;;;;;8.95;100.00;98316.47;8294662;28;20044;-80
2021/12/27 13:00:35;;;;;;;23.30;14.27;;;;;;;8.96;100.00;98318.16;8281622;28;20308;-81
2021/12/27 13:05:04;;;;;;;29.55;14.38;;;;;;;8.87;100.00;98317.06;8280706;28;20026;-80
2021/12/27 13:09:04;;;;;;;26.73;14.18;;;;;;;8.88;100.00;98319.50;8271093;28;20033;-79
2021/12/27 13:13:11;;;;;;;24.13;14.55;;;;;;;8.93;100.00;98306.91;8262911;28;20495;-80
2021/12/27 13:17:17;;;;;;;32.72;16.05;;;;;;;8.97;100.00;98308.78;8276940;28;20039;-80
2021/12/27 13:21:17;;;;;;;33.20;16.40;;;;;;;8.81;100.00;98315.41;8299919;28;20046;-80
2021/12/27 13:25:32;;;;;;;32.38;15.95;;;;;;;8.79;100.00;98312.09;8275360;28;20027;-80
2021/12/27 13:29:33;;;;;;;29.60;15.52;;;;;;;8.78;100.00;98303.03;8269165;28;20547;-81
2021/12/27 13:33:43;;;;;;;32.22;17.30;;;;;;;8.73;100.00;98296.72;8285063;28;20218;-79
2021/12/27 13:37:45;;;;;;;36.00;17.50;;;;;;;8.72;100.00;98295.09;8266775;28;20033;-80
2021/12/27 13:41:52;;;;;;;43.08;22.30;;;;;;;8.70;100.00;98291.78;8277597;28;20567;-79
2021/12/27 13:45:54;;;;;;;30.77;16.05;;;;;;;8.73;100.00;98288.50;8294277;28;20045;-79
2021/12/27 13:49:57;;;;;;;39.38;19.65;;;;;;;8.79;100.00;98301.13;8297718;28;20030;-80
2021/12/27 13:54:10;;;;;;;40.38;18.48;;;;;;;8.59;100.00;98308.25;8312129;28;20042;-79
2021/12/27 13:58:18;;;;;;;39.70;18.50;;;;;;;8.43;100.00;98298.34;8270995;28;20054;-80
2021/12/27 14:02:18;;;;;;;35.80;17.55;;;;;;;8.27;100.00;98294.75;8273811;28;20499;-80
2021/12/27 14:06:21;;;;;;;37.00;18.10;;;;;;;8.18;100.00;98286.22;8276875;28;20050;-81
2021/12/27 14:10:23;;;;;;;37.13;18.38;;;;;;;8.09;100.00;98287.84;8271220;28;20772;-79
2021/12/27 14:14:32;;;;;;;43.35;18.27;;;;;;;8.08;100.00;98286.19;8284772;28;20046;-80
2021/12/27 14:18:33;;;;;;;50.00;18.30;;;;;;;8.09;100.00;98289.75;8270221;28;20030;-80
2021/12/27 14:22:53;;;;;;;38.40;17.45;;;;;;;8.02;100.00;98280.97;8272503;28;20068;-80
2021/12/27 14:26:54;;;;;;;39.50;18.95;;;;;;;7.95;100.00;98282.03;8261417;28;20054;-80
2021/12/27 14:30:55;;;;;;;43.75;19.42;;;;;;;7.93;100.00;98280.66;8261357;28;20069;-80
2021/12/27 14:34:55;;;;;;;48.40;20.98;;;;;;;7.87;100.00;98276.25;8263292;28;20061;-80
2021/12/27 14:38:56;;;;;;;61.10;22.25;;;;;;;7.86;100.00;98283.66;8272895;28;20510;-80
2021/12/27 14:42:57;;;;;;;55.97;23.60;;;;;;;7.83;100.00;98277.91;8284091;28;20359;-80
2021/12/27 14:46:58;;;;;;;65.55;23.50;;;;;;;7.77;100.00;98279.81;8279621;28;20053;-80
2021/12/27 14:50:58;;;;;;;59.07;21.67;;;;;;;7.68;100.00;98276.75;8276408;28;20483;-80
2021/12/27 14:54:59;;;;;;;51.25;20.40;;;;;;;7.63;100.00;98271.25;8270723;28;20789;-80
2021/12/27 14:58:59;;;;;;;66.65;27.77;;;;;;;7.66;100.00;98269.88;8273603;28;20051;-79
2021/12/27 15:03:00;;;;;;;43.90;20.35;;;;;;;7.63;100.00;98263.00;8270635;28;20121;-79
2021/12/27 15:07:00;;;;;;;60.75;22.55;;;;;;;7.64;100.00;98269.31;8272970;28;20511;-80
2021/12/27 15:11:01;;;;;;;42.95;20.42;;;;;;;7.62;100.00;98257.81;8282184;28;20054;-81
2021/12/27 15:15:02;;;;;;;47.28;20.75;;;;;;;7.61;100.00;98259.72;8276193;28;20438;-79
2021/12/27 15:19:03;;;;;;;64.28;25.17;;;;;;;7.53;100.00;98263.81;8268290;28;20130;-80
2021/12/27 15:23:04;;;;;;;45.55;20.63;;;;;;;7.49;100.00;98273.63;8251023;28;20150;-80
2021/12/27 15:27:08;;;;;;;50.13;23.08;;;;;;;7.46;100.00;98276.91;8280654;28;20038;-80
2021/12/27 15:31:09;;;;;;;46.05;19.60;;;;;;;7.43;100.00;98269.22;8260630;28;20040;-79
2021/12/27 15:35:13;;;;;;;40.55;18.45;;;;;;;7.46;100.00;98274.19;8277482;28;20042;-80
2021/12/27 15:39:13;;;;;;;37.35;18.98;;;;;;;7.43;100.00;98261.00;8257686;28;20041;-80
2021/12/27 15:43:14;;;;;;;47.13;19.58;;;;;;;7.42;100.00;98261.28;8265949;28;20499;-80
2021/12/27 15:47:14;;;;;;;38.40;18.17;;;;;;;7.38;100.00;98263.75;8251510;28;20402;-79
2021/12/27 15:51:14;;;;;;;44.78;18.73;;;;;;;7.36;100.00;98274.13;8279737;28;20037;-80
2021/12/27 15:55:16;;;;;;;65.90;35.30;;;;;;;7.39;100.00;98279.09;8288186;28;20030;-80
2021/12/27 15:59:16;;;;;;;44.92;22.42;;;;;;;7.40;100.00;98277.16;8281712;28;20030;-79
2021/12/27 16:03:17;;;;;;;44.85;21.25;;;;;;;7.42;100.00;98273.06;8277608;28;20035;-80
2021/12/27 16:07:17;;;;;;;34.10;18.45;;;;;;;7.39;100.00;98265.38;8278134;28;20037;-80
2021/12/27 16:11:17;;;;;;;40.20;18.40;;;;;;;7.38;100.00;98265.66;8284580;28;20035;-80
2021/12/27 16:15:20;;;;;;;37.10;18.55;;;;;;;7.36;100.00;98273.31;8287830;28;20049;-80
2021/12/27 16:19:21;;;;;;;43.03;19.60;;;;;;;7.36;100.00;98276.88;8287591;28;20038;-80
2021/12/27 16:23:21;;;;;;;47.00;23.10;;;;;;;7.33;100.00;98271.13;8281385;28;20037;-80
2021/12/27 16:27:22;;;;;;;46.10;21.67;;;;;;;7.31;100.00;98274.09;8279991;28;20034;-80
2021/12/27 16:31:23;;;;;;;40.55;18.85;;;;;;;7.28;100.00;98264.50;8241987;28;20031;-79
2021/12/27 16:35:24;;;;;;;40.47;18.33;;;;;;;7.26;100.00;98261.22;8287942;28;20049;-81
2021/12/27 16:39:27;;;;;;;32.60;17.10;;;;;;;7.23;100.00;98260.94;8283650;28;20121;-79
2021/12/27 16:43:27;;;;;;;29.20;15.23;;;;;;;7.19;100.00;98268.84;8283096;28;20042;-80
2021/12/27 16:47:28;;;;;;;31.83;16.35;;;;;;;7.15;100.00;98275.94;8293145;28;20554;-79
2021/12/27 16:51:29;;;;;;;44.83;20.48;;;;;;;7.11;100.00;98277.56;8278493;28;20026;-79
2021/12/27 16:55:29;;;;;;;39.92;19.75;;;;;;;7.05;100.00;98284.13;8290885;28;20040;-80
2021/12/27 16:59:30;;;;;;;41.10;18.60;;;;;;;7.02;100.00;98279.13;8275674;28;20044;-80
2021/12/27 17:03:30;;;;;;;31.95;15.80;;;;;;;7.00;100.00;98279.41;8264940;28;20041;-80
2021/12/27 17:07:31;;;;;;;36.55;18.42;;;;;;;6.99;100.00;98282.41;8264684;28;20030;-80
2021/12/27 17:11:32;;;;;;;71.13;26.92;;;;;;;6.87;100.00;98304.53;8288611;28;20037;-79
2021/12/27 17:15:36;;;;;;;61.05;26.65;;;;;;;6.78;100.00;98297.88;8295074;28;20406;-79
2021/12/27 17:19:37;;;;;;;54.75;23.95;;;;;;;6.81;100.00;98294.59;8274241;28;20484;-80
2021/12/27 17:23:38;;;;;;;68.28;25.73;;;;;;;6.79;100.00;98305.00;8273348;28;20045;-80
2021/12/27 17:27:38;;;;;;;48.33;22.20;;;;;;;6.77;100.00;98302.53;8265381;28;20034;-79
2021/12/27 17:31:39;;;;;;;43.90;21.27;;;;;;;6.81;100.00;98308.28;8252754;28;20041;-80
2021/12/27 17:35:40;;;;;;;59.17;22.75;;;;;;;6.89;100.00;98307.00;8283352;28;20033;-80
2021/12/27 17:39:40;;;;;;;52.05;22.73;;;;;;;6.92;100.00;98298.25;8280164;28;20080;-81
2021/12/27 17:43:41;;;;;;;49.55;20.92;;;;;;;6.94;100.00;98285.13;8278984;28;20162;-80
2021/12/27 17:47:44;;;;;;;48.60;20.38;;;;;;;6.93;100.00;98283.47;8273474;28;20085;-79
2021/12/27 17:51:45;;;;;;;63.55;22.00;;;;;;;6.93;100.00;98288.94;8283240;28;20034;-80
2021/12/27 17:55:45;;;;;;;46.33;21.77;;;;;;;6.85;100.00;98291.09;8270343;28;20052;-80
2021/12/27 17:59:46;;;;;;;39.42;19.38;;;;;;;6.86;100.00;98286.44;8261298;28;20817;-81
2021/12/27 18:03:47;;;;;;;29.67;16.90;;;;;;;6.92;100.00;98281.81;8270433;28;20054;-81
2021/12/27 18:07:48;;;;;;;26.63;15.43;;;;;;;6.97;100.00;98285.41;8268412;28;20040;-80
2021/12/27 18:11:48;;;;;;;28.55;14.32;;;;;;;7.01;100.00;98278.31;8290837;28;20065;-80
2021/12/27 18:15:49;;;;;;;20.10;10.32;;;;;;;7.07;100.00;98274.53;8273889;28;20045;-80
2021/12/27 18:19:50;;;;;;;15.65;7.22;;;;;;;7.12;100.00;98284.69;8273751;28;20038;-80
2021/12/27 18:23:51;;;;;;;10.45;5.68;;;;;;;7.21;100.00;98280.34;8263843;28;20030;-80
2021/12/27 18:27:52;;;;;;;12.27;7.35;;;;;;;7.35;100.00;98285.34;8276174;28;20049;-80
2021/12/27 18:31:53;;;;;;;8.15;4.30;;;;;;;7.46;100.00;98279.66;8249727;28;20042;-80
2021/12/27 18:35:53;;;;;;;6.38;3.65;;;;;;;7.58;100.00;98287.66;8261277;28;20380;-80
2021/12/27 18:39:54;;;;;;;6.60;3.90;;;;;;;7.68;100.00;98282.22;8267800;28;20053;-81